Other Surface Observations
Issued by NWS Missoula, MT

Home | Current Version | Previous Version | Text Only | Print | Product List | Glossary On
Versions: 1 2 3 4 5 6 7 8 9 10 11 12 13 14 15 16 17 18 19 20 21 22 23 24 25 26 27 28 29 30 31 32 33 34 35 36 37 38 39 40 41 42 43 44 45 46 47 48 49 50
000
SXUS55 KMSO 290924
OSOMSO
MONTANA AWOS SUMMARY
NATIONAL WEATHER SERVICE MISSOULA MT
323 AM MDT TUE JUL 29 2014

Montana AWOS Reports

LAUREL      |K6S8 290915Z AUTO 34004KT 40SM 21/06 A3016 RMK AO1 T02060056
ROUNDUP     |KRPX 290915Z AUTO 34007KT 40SM 19/05 A3011 RMK AO1 T01940050
MALTA       |KM75 290915Z AUTO 00000KT 40SM 16/10 A3016 RMK AO1 T01610100




USA.gov is the U.S. government's official web portal to all federal, state and local government web resources and services.